Time,TemperatureF,DewpointF,PressureIn,WindDirection,WindDirectionDegrees,WindSpeedMPH,WindSpeedGustMPH,Humidity,HourlyPrecipIn,Conditions,Clouds,dailyrainin,SoftwareType,DateUTC
2013-05-10 00:00:00,60.1,55.3,29.87,NNW,342,1.0,8.0,84,0.00,,---,0.02,VWS V14.01,2013-05-10 05:00:00,
2013-05-10 00:05:00,60.0,55.5,29.88,North,349,3.0,4.0,85,0.00,,---,0.00,VWS V14.01,2013-05-10 05:05:00,
2013-05-10 00:10:00,59.8,55.6,29.88,NNW,330,3.0,4.0,86,0.00,,---,0.00,VWS V14.01,2013-05-10 05:10:00,
2013-05-10 00:15:00,60.0,55.8,29.88,North,4,4.0,6.0,86,0.00,,---,0.00,VWS V14.01,2013-05-10 05:15:00,
2013-05-10 00:20:00,60.0,56.1,29.88,NNW,342,4.0,6.0,87,0.00,,---,0.00,VWS V14.01,2013-05-10 05:20:00,
2013-05-10 00:26:00,59.9,56.3,29.88,NNE,20,6.0,10.0,88,0.00,,---,0.00,VWS V14.01,2013-05-10 05:26:00,
2013-05-10 00:31:00,59.7,56.2,29.89,North,6,5.0,7.0,88,0.00,,---,0.00,VWS V14.01,2013-05-10 05:31:00,
2013-05-10 00:36:00,59.8,56.6,29.89,North,352,6.0,10.0,89,0.00,,---,0.00,VWS V14.01,2013-05-10 05:36:00,
2013-05-10 00:41:00,59.9,56.7,29.89,North,1,6.0,10.0,89,0.00,,---,0.00,VWS V14.01,2013-05-10 05:41:00,
2013-05-10 00:46:00,59.9,56.7,29.90,NNW,334,4.0,10.0,89,0.00,,---,0.00,VWS V14.01,2013-05-10 05:46:00,
2013-05-10 00:51:00,60.0,56.8,29.91,NW,309,2.0,10.0,89,0.00,,---,0.00,VWS V14.01,2013-05-10 05:51:00,
2013-05-10 00:56:00,60.1,56.8,29.92,WNW,297,4.0,10.0,89,0.00,,---,0.00,VWS V14.01,2013-05-10 05:56:00,
2013-05-10 01:01:00,60.2,57.0,29.93,NW,316,2.0,6.0,89,0.00,,---,0.00,VWS V14.01,2013-05-10 06:01:00,
2013-05-10 01:06:00,60.4,56.8,29.94,NW,319,5.0,7.0,88,0.00,,---,0.00,VWS V14.01,2013-05-10 06:06:00,
2013-05-10 01:12:00,60.6,56.7,29.95,WNW,294,6.0,8.0,87,0.00,,---,0.00,VWS V14.01,2013-05-10 06:12:00,
2013-05-10 01:17:00,60.9,57.0,29.96,NW,310,6.0,10.0,87,0.00,,---,0.00,VWS V14.01,2013-05-10 06:17:00,
2013-05-10 01:22:00,61.1,57.5,29.97,West,259,14.0,19.0,88,0.00,,---,0.00,VWS V14.01,2013-05-10 06:22:00,
2013-05-10 01:27:00,61.5,57.6,29.97,WNW,302,13.0,20.0,87,0.00,,---,0.00,VWS V14.01,2013-05-10 06:27:00,
2013-05-10 01:32:00,61.9,58.0,29.97,West,278,13.0,19.0,87,0.01,,---,0.01,VWS V14.01,2013-05-10 06:32:00,
2013-05-10 01:37:00,62.2,58.3,29.98,West,277,19.0,23.0,87,0.01,,---,0.01,VWS V14.01,2013-05-10 06:37:00,
2013-05-10 01:42:00,61.5,57.6,29.99,NW,312,20.0,28.0,87,0.01,,---,0.01,VWS V14.01,2013-05-10 06:42:00,
2013-05-10 01:47:00,60.4,56.8,29.99,WNW,297,24.0,28.0,88,0.02,,---,0.02,VWS V14.01,2013-05-10 06:47:00,
2013-05-10 01:52:00,59.3,55.8,29.98,NW,316,13.0,28.0,88,0.05,,---,0.05,VWS V14.01,2013-05-10 06:52:00,
2013-05-10 01:58:00,57.9,55.6,29.97,NNW,328,7.0,28.0,92,0.12,,---,0.12,VWS V14.01,2013-05-10 06:58:00,
2013-05-10 02:03:00,57.4,55.1,29.97,NNW,335,15.0,17.0,92,0.12,,---,0.12,VWS V14.01,2013-05-10 07:03:00,
2013-05-10 02:08:00,57.4,55.4,29.95,North,6,16.0,19.0,93,0.13,,---,0.13,VWS V14.01,2013-05-10 07:08:00,
2013-05-10 02:13:00,57.9,55.9,29.94,NNW,340,9.0,20.0,93,0.13,,---,0.13,VWS V14.01,2013-05-10 07:13:00,
2013-05-10 02:18:00,58.3,56.3,29.93,NNW,347,19.0,27.0,93,0.14,,---,0.14,VWS V14.01,2013-05-10 07:18:00,
2013-05-10 02:23:00,58.2,56.2,29.91,North,11,16.0,27.0,93,0.14,,---,0.14,VWS V14.01,2013-05-10 07:23:00,
2013-05-10 02:28:00,57.9,55.9,29.89,NNE,18,26.0,31.0,93,0.15,,---,0.15,VWS V14.01,2013-05-10 07:28:00,
2013-05-10 02:33:00,57.8,55.8,29.89,North,356,25.0,26.0,93,0.14,,---,0.15,VWS V14.01,2013-05-10 07:33:00,
2013-05-10 02:38:00,58.0,56.0,29.87,NNE,14,22.0,35.0,93,0.15,,---,0.16,VWS V14.01,2013-05-10 07:38:00,
2013-05-10 02:44:00,57.8,55.8,29.86,North,356,28.0,35.0,93,0.15,,---,0.16,VWS V14.01,2013-05-10 07:44:00,
2013-05-10 02:49:00,57.8,55.8,29.85,NE,37,18.0,35.0,93,0.16,,---,0.17,VWS V14.01,2013-05-10 07:49:00,
2013-05-10 02:54:00,58.1,56.1,29.84,North,352,26.0,37.0,93,0.16,,---,0.17,VWS V14.01,2013-05-10 07:54:00,
2013-05-10 02:59:00,58.2,56.2,29.84,NE,37,27.0,37.0,93,0.16,,---,0.17,VWS V14.01,2013-05-10 07:59:00,
2013-05-10 03:04:00,58.4,56.4,29.86,NNE,20,17.0,33.0,93,0.05,,---,0.17,VWS V14.01,2013-05-10 08:04:00,
2013-05-10 03:09:00,58.4,56.4,29.90,West,273,7.0,33.0,93,0.05,,---,0.17,VWS V14.01,2013-05-10 08:09:00,
2013-05-10 03:14:00,58.4,56.4,29.90,NW,325,3.0,33.0,93,0.05,,---,0.17,VWS V14.01,2013-05-10 08:14:00,
2013-05-10 03:19:00,58.5,56.5,29.89,East,85,6.0,33.0,93,0.05,,---,0.17,VWS V14.01,2013-05-10 08:19:00,
2013-05-10 03:24:00,58.5,56.5,29.90,WNW,284,4.0,33.0,93,0.05,,---,0.17,VWS V14.01,2013-05-10 08:24:00,
2013-05-10 03:30:00,58.5,56.5,29.90,NW,315,6.0,33.0,93,0.05,,---,0.17,VWS V14.01,2013-05-10 08:30:00,
2013-05-10 03:35:00,58.7,56.7,29.90,NNW,333,6.0,9.0,93,0.02,,---,0.17,VWS V14.01,2013-05-10 08:35:00,
2013-05-10 03:40:00,58.9,56.9,29.90,NNW,328,6.0,13.0,93,0.02,,---,0.17,VWS V14.01,2013-05-10 08:40:00,
2013-05-10 03:45:00,59.0,57.0,29.90,NW,324,6.0,13.0,93,0.02,,---,0.17,VWS V14.01,2013-05-10 08:45:00,
2013-05-10 03:50:00,58.8,56.8,29.89,NNW,333,4.0,13.0,93,0.02,,---,0.17,VWS V14.01,2013-05-10 08:50:00,
2013-05-10 03:55:00,58.7,56.7,29.89,North,360,5.0,13.0,93,0.02,,---,0.17,VWS V14.01,2013-05-10 08:55:00,
2013-05-10 04:00:00,58.8,56.8,29.89,NW,319,1.0,13.0,93,0.02,,---,0.17,VWS V14.01,2013-05-10 09:00:00,
2013-05-10 04:05:00,58.9,56.9,29.87,NNE,15,6.0,6.0,93,0.00,,---,0.17,VWS V14.01,2013-05-10 09:05:00,
2013-05-10 04:10:00,58.9,56.9,29.87,North,352,4.0,7.0,93,0.00,,---,0.17,VWS V14.01,2013-05-10 09:10:00,
2013-05-10 04:15:00,58.9,56.9,29.88,NNE,12,4.0,7.0,93,0.00,,---,0.17,VWS V14.01,2013-05-10 09:15:00,
2013-05-10 04:21:00,58.7,56.7,29.88,NNE,24,2.0,7.0,93,0.00,,---,0.17,VWS V14.01,2013-05-10 09:21:00,
2013-05-10 04:26:00,58.6,56.6,29.88,North,11,1.0,7.0,93,0.00,,---,0.17,VWS V14.01,2013-05-10 09:26:00,
2013-05-10 04:31:00,58.5,56.5,29.88,North,4,1.0,1.0,93,0.00,,---,0.17,VWS V14.01,2013-05-10 09:31:00,
2013-05-10 04:36:00,58.2,56.2,29.89,South,172,2.0,3.0,93,0.00,,---,0.17,VWS V14.01,2013-05-10 09:36:00,
2013-05-10 04:41:00,57.7,55.7,29.89,SSE,156,2.0,5.0,93,0.00,,---,0.17,VWS V14.01,2013-05-10 09:41:00,
2013-05-10 04:46:00,57.2,55.2,29.89,SSE,158,3.0,5.0,93,0.00,,---,0.17,VWS V14.01,2013-05-10 09:46:00,
2013-05-10 04:51:00,56.9,54.9,29.89,SSW,208,2.0,5.0,93,0.00,,---,0.17,VWS V14.01,2013-05-10 09:51:00,
2013-05-10 04:56:00,56.8,54.8,29.89,SW,219,3.0,5.0,93,0.00,,---,0.17,VWS V14.01,2013-05-10 09:56:00,
2013-05-10 05:01:00,56.5,54.5,29.90,SW,229,1.0,4.0,93,0.00,,---,0.17,VWS V14.01,2013-05-10 10:01:00,
2013-05-10 05:07:00,56.2,54.2,29.92,West,279,3.0,5.0,93,0.00,,---,0.17,VWS V14.01,2013-05-10 10:07:00,
2013-05-10 05:12:00,56.2,54.2,29.92,WNW,294,5.0,5.0,93,0.00,,---,0.17,VWS V14.01,2013-05-10 10:12:00,
2013-05-10 05:17:00,55.9,53.9,29.92,WNW,284,4.0,8.0,93,0.00,,---,0.17,VWS V14.01,2013-05-10 10:17:00,
2013-05-10 05:22:00,55.8,53.8,29.92,NW,305,1.0,8.0,93,0.00,,---,0.17,VWS V14.01,2013-05-10 10:22:00,
2013-05-10 05:27:00,55.7,53.7,29.93,NW,316,4.0,8.0,93,0.00,,---,0.17,VWS V14.01,2013-05-10 10:27:00,
2013-05-10 05:32:00,55.8,53.8,29.93,WNW,294,5.0,7.0,93,0.00,,---,0.17,VWS V14.01,2013-05-10 10:32:00,
2013-05-10 05:37:00,56.0,54.0,29.93,WNW,288,6.0,7.0,93,0.00,,---,0.17,VWS V14.01,2013-05-10 10:37:00,
2013-05-10 05:42:00,56.2,54.2,29.93,WNW,298,4.0,8.0,93,0.00,,---,0.17,VWS V14.01,2013-05-10 10:42:00,
2013-05-10 05:47:00,56.5,54.5,29.94,WNW,288,3.0,8.0,93,0.00,,---,0.17,VWS V14.01,2013-05-10 10:47:00,
2013-05-10 05:53:00,56.6,54.6,29.94,WNW,285,3.0,8.0,93,0.00,,---,0.17,VWS V14.01,2013-05-10 10:53:00,
2013-05-10 05:58:00,56.7,54.4,29.94,WNW,297,4.0,8.0,92,0.00,,---,0.17,VWS V14.01,2013-05-10 10:58:00,
2013-05-10 06:03:00,56.7,54.4,29.95,West,269,1.0,3.0,92,0.00,,---,0.17,VWS V14.01,2013-05-10 11:03:00,
2013-05-10 06:08:00,56.7,54.4,29.95,SW,228,2.0,3.0,92,0.00,,---,0.17,VWS V14.01,2013-05-10 11:08:00,
2013-05-10 06:13:00,56.8,54.5,29.96,WSW,247,2.0,3.0,92,0.00,,---,0.17,VWS V14.01,2013-05-10 11:13:00,
2013-05-10 06:18:00,56.9,54.6,29.96,West,262,3.0,4.0,92,0.00,,---,0.17,VWS V14.01,2013-05-10 11:18:00,
2013-05-10 06:23:00,57.2,54.9,29.97,WSW,249,2.0,6.0,92,0.00,,---,0.17,VWS V14.01,2013-05-10 11:23:00,
2013-05-10 06:28:00,57.4,55.1,29.97,WNW,287,3.0,6.0,92,0.00,,---,0.17,VWS V14.01,2013-05-10 11:28:00,
2013-05-10 06:33:00,57.6,55.3,29.97,West,262,3.0,3.0,92,0.00,,---,0.17,VWS V14.01,2013-05-10 11:33:00,
2013-05-10 06:38:00,57.7,55.4,29.97,WSW,255,2.0,3.0,92,0.00,,---,0.17,VWS V14.01,2013-05-10 11:38:00,
2013-05-10 06:44:00,57.8,55.5,29.97,WSW,258,2.0,4.0,92,0.00,,---,0.17,VWS V14.01,2013-05-10 11:44:00,
2013-05-10 06:49:00,57.8,55.5,29.97,WNW,283,2.0,4.0,92,0.00,,---,0.17,VWS V14.01,2013-05-10 11:49:00,
2013-05-10 06:54:00,57.8,55.5,29.97,WNW,294,3.0,4.0,92,0.00,,---,0.17,VWS V14.01,2013-05-10 11:54:00,
2013-05-10 06:59:00,57.7,55.4,29.97,WNW,298,2.0,5.0,92,0.00,,---,0.17,VWS V14.01,2013-05-10 11:59:00,
2013-05-10 07:04:00,57.7,55.4,29.97,WNW,290,3.0,5.0,92,0.00,,---,0.17,VWS V14.01,2013-05-10 12:04:00,
2013-05-10 07:09:00,57.6,55.3,29.97,NW,321,2.0,5.0,92,0.00,,---,0.17,VWS V14.01,2013-05-10 12:09:00,
2013-05-10 07:14:00,57.6,55.3,29.97,NW,321,3.0,5.0,92,0.00,,---,0.17,VWS V14.01,2013-05-10 12:14:00,
2013-05-10 07:19:00,57.9,55.6,29.97,NW,324,4.0,6.0,92,0.00,,---,0.17,VWS V14.01,2013-05-10 12:19:00,
2013-05-10 07:24:00,58.1,55.5,29.97,NW,322,6.0,9.0,91,0.00,,---,0.17,VWS V14.01,2013-05-10 12:24:00,
2013-05-10 07:30:00,58.1,55.5,29.97,NNW,340,6.0,10.0,91,0.00,,---,0.17,VWS V14.01,2013-05-10 12:30:00,
2013-05-10 07:35:00,58.1,55.5,29.97,NW,321,6.0,11.0,91,0.00,,---,0.17,VWS V14.01,2013-05-10 12:35:00,
2013-05-10 07:40:00,58.4,55.8,29.97,NW,315,8.0,13.0,91,0.00,,---,0.17,VWS V14.01,2013-05-10 12:40:00,
2013-05-10 07:45:00,58.7,56.1,29.97,North,353,9.0,13.0,91,0.00,,---,0.17,VWS V14.01,2013-05-10 12:45:00,
2013-05-10 07:50:00,59.1,56.2,29.98,NW,321,8.0,13.0,90,0.00,,---,0.17,VWS V14.01,2013-05-10 12:50:00,
2013-05-10 07:55:00,59.4,56.2,29.98,NNW,345,8.0,13.0,89,0.00,,---,0.17,VWS V14.01,2013-05-10 12:55:00,
2013-05-10 08:00:00,59.6,56.4,29.99,NW,323,9.0,13.0,89,0.00,,---,0.17,VWS V14.01,2013-05-10 13:00:00,
2013-05-10 08:05:00,59.7,56.5,29.99,NW,320,12.0,15.0,89,0.00,,---,0.17,VWS V14.01,2013-05-10 13:05:00,
2013-05-10 08:10:00,59.9,56.7,29.99,NNW,346,6.0,15.0,89,0.00,,---,0.17,VWS V14.01,2013-05-10 13:10:00,
2013-05-10 08:15:00,60.0,56.4,29.99,NW,326,9.0,15.0,88,0.00,,---,0.17,VWS V14.01,2013-05-10 13:15:00,
2013-05-10 08:21:00,60.1,56.8,30.00,NW,311,5.0,15.0,89,0.00,,---,0.17,VWS V14.01,2013-05-10 13:21:00,
2013-05-10 08:26:00,60.2,57.0,30.00,North,352,8.0,15.0,89,0.00,,---,0.17,VWS V14.01,2013-05-10 13:26:00,
2013-05-10 08:31:00,60.3,56.7,30.00,North,349,5.0,10.0,88,0.00,,---,0.17,VWS V14.01,2013-05-10 13:31:00,
2013-05-10 08:36:00,60.6,57.3,30.00,NW,314,8.0,15.0,89,0.00,,---,0.17,VWS V14.01,2013-05-10 13:36:00,
2013-05-10 08:41:00,60.9,57.3,30.00,NNW,338,14.0,17.0,88,0.00,,---,0.17,VWS V14.01,2013-05-10 13:41:00,
2013-05-10 08:46:00,61.2,57.9,30.00,NNW,347,8.0,18.0,89,0.00,,---,0.17,VWS V14.01,2013-05-10 13:46:00,
2013-05-10 08:51:00,61.5,57.9,30.00,NW,325,14.0,19.0,88,0.00,,---,0.17,VWS V14.01,2013-05-10 13:51:00,
2013-05-10 08:56:00,61.6,58.0,30.00,NNW,330,13.0,20.0,88,0.00,,---,0.17,VWS V14.01,2013-05-10 13:56:00,
2013-05-10 09:01:00,61.6,57.7,30.00,North,360,18.0,18.0,87,0.00,,---,0.17,VWS V14.01,2013-05-10 14:01:00,
2013-05-10 09:07:00,61.7,58.1,30.00,NNW,330,15.0,21.0,88,0.00,,---,0.17,VWS V14.01,2013-05-10 14:07:00,
2013-05-10 09:12:00,62.1,58.5,30.01,NNW,333,9.0,21.0,88,0.00,,---,0.17,VWS V14.01,2013-05-10 14:12:00,
2013-05-10 09:17:00,62.2,58.6,30.01,NNW,345,17.0,21.0,88,0.00,,---,0.17,VWS V14.01,2013-05-10 14:17:00,
2013-05-10 09:22:00,62.2,58.3,30.01,North,352,15.0,23.0,87,0.00,,---,0.17,VWS V14.01,2013-05-10 14:22:00,
2013-05-10 09:27:00,62.1,57.9,30.01,NNW,336,15.0,23.0,86,0.00,,---,0.17,VWS V14.01,2013-05-10 14:27:00,
2013-05-10 09:32:00,62.7,58.8,30.01,North,358,12.0,17.0,87,0.00,,---,0.17,VWS V14.01,2013-05-10 14:32:00,
2013-05-10 09:37:00,63.1,58.2,30.01,NNW,345,18.0,22.0,84,0.00,,---,0.17,VWS V14.01,2013-05-10 14:37:00,
2013-05-10 09:42:00,63.0,58.4,30.01,NNW,338,13.0,23.0,85,0.00,,---,0.17,VWS V14.01,2013-05-10 14:42:00,
2013-05-10 09:47:00,63.4,58.5,30.02,North,354,14.0,23.0,84,0.00,,---,0.17,VWS V14.01,2013-05-10 14:47:00,
2013-05-10 09:53:00,63.7,58.5,30.01,NW,315,18.0,23.0,83,0.00,,---,0.17,VWS V14.01,2013-05-10 14:53:00,
2013-05-10 09:58:00,63.7,58.1,30.01,NNW,347,13.0,23.0,82,0.00,,---,0.17,VWS V14.01,2013-05-10 14:58:00,
2013-05-10 10:03:00,64.2,59.3,30.01,North,359,15.0,19.0,84,0.00,,---,0.17,VWS V14.01,2013-05-10 15:03:00,
2013-05-10 10:08:00,64.6,58.7,30.01,North,8,21.0,23.0,81,0.00,,---,0.17,VWS V14.01,2013-05-10 15:08:00,
2013-05-10 10:13:00,64.8,58.5,30.01,North,357,20.0,25.0,80,0.00,,---,0.17,VWS V14.01,2013-05-10 15:13:00,
2013-05-10 10:18:00,64.4,58.1,30.01,NNE,24,12.0,25.0,80,0.00,,---,0.17,VWS V14.01,2013-05-10 15:18:00,
2013-05-10 10:23:00,64.5,58.2,30.01,NE,43,13.0,25.0,80,0.00,,---,0.17,VWS V14.01,2013-05-10 15:23:00,
2013-05-10 10:28:00,64.8,58.1,30.01,NNE,30,11.0,25.0,79,0.00,,---,0.17,VWS V14.01,2013-05-10 15:28:00,
2013-05-10 10:33:00,65.1,58.4,30.01,North,8,15.0,19.0,79,0.00,,---,0.17,VWS V14.01,2013-05-10 15:33:00,
2013-05-10 10:38:00,65.2,58.2,30.02,North,349,17.0,21.0,78,0.00,,---,0.17,VWS V14.01,2013-05-10 15:38:00,
2013-05-10 10:44:00,65.2,58.5,30.02,NE,39,14.0,21.0,79,0.00,,---,0.17,VWS V14.01,2013-05-10 15:44:00,
2013-05-10 10:49:00,65.2,58.5,30.02,North,354,15.0,21.0,79,0.00,,---,0.17,VWS V14.01,2013-05-10 15:49:00,
2013-05-10 10:54:00,65.6,58.6,30.02,North,357,11.0,21.0,78,0.00,,---,0.17,VWS V14.01,2013-05-10 15:54:00,
2013-05-10 10:59:00,65.8,58.4,30.02,North,354,9.0,21.0,77,0.00,,---,0.17,VWS V14.01,2013-05-10 15:59:00,
2013-05-10 11:04:00,65.9,58.9,30.02,NNW,345,10.0,17.0,78,0.00,,---,0.17,VWS V14.01,2013-05-10 16:04:00,
2013-05-10 11:09:00,66.2,58.8,30.02,NNW,339,8.0,18.0,77,0.00,,---,0.17,VWS V14.01,2013-05-10 16:09:00,
2013-05-10 11:14:00,66.2,58.8,30.02,NNW,340,10.0,18.0,77,0.00,,---,0.17,VWS V14.01,2013-05-10 16:14:00,
2013-05-10 11:19:00,66.4,58.6,30.02,North,11,10.0,18.0,76,0.00,,---,0.17,VWS V14.01,2013-05-10 16:19:00,
2013-05-10 11:24:00,66.4,58.2,30.02,North,358,16.0,18.0,75,0.00,,---,0.17,VWS V14.01,2013-05-10 16:24:00,
2013-05-10 11:30:00,66.8,58.6,30.02,NNW,338,9.0,18.0,75,0.00,,---,0.17,VWS V14.01,2013-05-10 16:30:00,
2013-05-10 11:35:00,67.2,58.6,30.03,North,359,12.0,15.0,74,0.00,,---,0.17,VWS V14.01,2013-05-10 16:35:00,
2013-05-10 11:40:00,67.9,58.9,30.03,NNW,339,13.0,16.0,73,0.00,,---,0.17,VWS V14.01,2013-05-10 16:40:00,
2013-05-10 11:45:00,68.0,59.0,30.03,NNW,342,9.0,17.0,73,0.00,,---,0.17,VWS V14.01,2013-05-10 16:45:00,
2013-05-10 11:50:00,68.1,58.7,30.03,NNE,28,12.0,17.0,72,0.00,,---,0.17,VWS V14.01,2013-05-10 16:50:00,
2013-05-10 11:55:00,68.7,58.9,30.03,NNE,12,12.0,17.0,71,0.00,,---,0.17,VWS V14.01,2013-05-10 16:55:00,
2013-05-10 12:00:00,68.9,59.5,30.03,NNE,16,12.0,17.0,72,0.00,,---,0.17,VWS V14.01,2013-05-10 17:00:00,
2013-05-10 12:05:00,69.1,58.9,30.03,NW,307,8.0,16.0,70,0.00,,---,0.17,VWS V14.01,2013-05-10 17:05:00,
2013-05-10 12:10:00,69.4,58.4,30.03,North,354,12.0,17.0,68,0.00,,---,0.17,VWS V14.01,2013-05-10 17:10:00,
2013-05-10 12:16:00,69.8,58.4,30.03,NNE,12,9.0,17.0,67,0.00,,---,0.17,VWS V14.01,2013-05-10 17:16:00,
2013-05-10 12:21:00,70.0,59.0,30.03,NNW,328,11.0,19.0,68,0.00,,---,0.17,VWS V14.01,2013-05-10 17:21:00,
2013-05-10 12:26:00,70.6,59.1,30.03,NNW,344,10.0,19.0,67,0.00,,---,0.17,VWS V14.01,2013-05-10 17:26:00,
2013-05-10 12:31:00,70.3,58.4,30.03,North,9,16.0,16.0,66,0.00,,---,0.17,VWS V14.01,2013-05-10 17:31:00,
2013-05-10 12:36:00,70.6,58.7,30.03,NNW,335,10.0,17.0,66,0.00,,---,0.17,VWS V14.01,2013-05-10 17:36:00,
2013-05-10 12:41:00,70.5,58.6,30.02,NW,311,11.0,17.0,66,0.00,,---,0.17,VWS V14.01,2013-05-10 17:41:00,
2013-05-10 12:46:00,70.6,58.3,30.02,NNW,342,12.0,17.0,65,0.00,,---,0.17,VWS V14.01,2013-05-10 17:46:00,
2013-05-10 12:51:00,71.2,59.3,30.03,NNW,342,8.0,17.0,66,0.00,,---,0.17,VWS V14.01,2013-05-10 17:51:00,
2013-05-10 12:56:00,71.0,57.3,30.02,NNE,23,12.0,17.0,62,0.00,,---,0.17,VWS V14.01,2013-05-10 17:56:00,
2013-05-10 13:02:00,71.4,57.3,30.02,NW,305,10.0,15.0,61,0.00,,---,0.17,VWS V14.01,2013-05-10 18:02:00,
2013-05-10 13:07:00,71.2,57.5,30.02,NNW,342,12.0,16.0,62,0.00,,---,0.17,VWS V14.01,2013-05-10 18:07:00,
2013-05-10 13:12:00,71.5,59.1,30.02,North,11,12.0,16.0,65,0.00,,---,0.17,VWS V14.01,2013-05-10 18:12:00,
2013-05-10 13:17:00,72.0,57.8,30.02,North,352,7.0,16.0,61,0.00,,---,0.17,VWS V14.01,2013-05-10 18:17:00,
2013-05-10 13:22:00,71.8,58.1,30.02,NW,313,9.0,16.0,62,0.00,,---,0.17,VWS V14.01,2013-05-10 18:22:00,
2013-05-10 13:27:00,71.8,58.5,30.02,North,354,5.0,16.0,63,0.00,,---,0.17,VWS V14.01,2013-05-10 18:27:00,
2013-05-10 13:32:00,71.7,58.0,30.02,North,359,11.0,13.0,62,0.00,,---,0.17,VWS V14.01,2013-05-10 18:32:00,
2013-05-10 13:37:00,71.3,57.6,30.02,NW,315,7.0,19.0,62,0.00,,---,0.17,VWS V14.01,2013-05-10 18:37:00,
2013-05-10 13:42:00,71.3,57.2,30.02,NW,326,8.0,19.0,61,0.00,,---,0.17,VWS V14.01,2013-05-10 18:42:00,
2013-05-10 13:47:00,71.1,57.4,30.01,NNW,342,9.0,19.0,62,0.00,,---,0.17,VWS V14.01,2013-05-10 18:47:00,
2013-05-10 13:53:00,71.7,57.5,30.01,NW,318,11.0,19.0,61,0.00,,---,0.17,VWS V14.01,2013-05-10 18:53:00,
2013-05-10 13:58:00,71.8,57.6,30.01,NW,323,9.0,19.0,61,0.00,,---,0.17,VWS V14.01,2013-05-10 18:58:00,
2013-05-10 14:03:00,71.9,57.3,30.01,NNW,335,12.0,15.0,60,0.00,,---,0.17,VWS V14.01,2013-05-10 19:03:00,
2013-05-10 14:08:00,72.4,57.3,30.00,NW,326,18.0,18.0,59,0.00,,---,0.17,VWS V14.01,2013-05-10 19:08:00,
2013-05-10 14:13:00,72.6,57.0,30.00,NW,316,9.0,18.0,58,0.00,,---,0.17,VWS V14.01,2013-05-10 19:13:00,
2013-05-10 14:18:00,73.2,58.0,30.01,North,6,16.0,18.0,59,0.00,,---,0.17,VWS V14.01,2013-05-10 19:18:00,
2013-05-10 14:23:00,73.3,55.7,30.01,North,354,4.0,18.0,54,0.00,,---,0.17,VWS V14.01,2013-05-10 19:23:00,
2013-05-10 14:28:00,73.5,56.4,30.01,NW,323,5.0,18.0,55,0.00,,---,0.17,VWS V14.01,2013-05-10 19:28:00,
2013-05-10 14:33:00,73.9,55.7,30.01,NNW,332,10.0,11.0,53,0.00,,---,0.17,VWS V14.01,2013-05-10 19:33:00,
2013-05-10 14:39:00,74.1,55.9,30.01,NW,317,7.0,16.0,53,0.00,,---,0.17,VWS V14.01,2013-05-10 19:39:00,
2013-05-10 14:44:00,73.5,55.3,30.01,NW,320,5.0,16.0,53,0.00,,---,0.17,VWS V14.01,2013-05-10 19:44:00,
2013-05-10 14:49:00,73.6,55.4,30.01,NW,316,5.0,16.0,53,0.00,,---,0.17,VWS V14.01,2013-05-10 19:49:00,
2013-05-10 14:54:00,73.5,55.9,30.00,NW,321,6.0,16.0,54,0.00,,---,0.17,VWS V14.01,2013-05-10 19:54:00,
2013-05-10 14:59:00,73.2,54.5,30.01,North,6,10.0,16.0,52,0.00,,---,0.17,VWS V14.01,2013-05-10 19:59:00,
2013-05-10 15:04:00,72.9,54.3,30.00,NW,310,8.0,11.0,52,0.00,,---,0.17,VWS V14.01,2013-05-10 20:04:00,
2013-05-10 15:09:00,72.6,54.0,30.01,NNW,332,7.0,14.0,52,0.00,,---,0.17,VWS V14.01,2013-05-10 20:09:00,
2013-05-10 15:14:00,72.5,55.4,30.01,NW,314,3.0,14.0,55,0.00,,---,0.17,VWS V14.01,2013-05-10 20:14:00,
2013-05-10 15:19:00,72.7,55.6,30.00,NNW,332,6.0,14.0,55,0.00,,---,0.17,VWS V14.01,2013-05-10 20:19:00,
2013-05-10 15:24:00,72.5,54.4,30.00,NNW,333,6.0,14.0,53,0.00,,---,0.17,VWS V14.01,2013-05-10 20:24:00,
2013-05-10 15:30:00,72.4,54.8,30.00,NNW,345,9.0,14.0,54,0.00,,---,0.17,VWS V14.01,2013-05-10 20:30:00,
2013-05-10 15:35:00,72.7,55.1,30.00,NNW,327,8.0,13.0,54,0.00,,---,0.17,VWS V14.01,2013-05-10 20:35:00,
2013-05-10 15:40:00,72.8,54.2,29.99,NNW,334,8.0,13.0,52,0.00,,---,0.17,VWS V14.01,2013-05-10 20:40:00,
2013-05-10 15:45:00,73.0,54.9,29.99,NW,315,6.0,13.0,53,0.00,,---,0.17,VWS V14.01,2013-05-10 20:45:00,
2013-05-10 15:50:00,73.2,55.1,29.99,NNW,345,8.0,17.0,53,0.00,,---,0.17,VWS V14.01,2013-05-10 20:50:00,
2013-05-10 15:55:00,73.1,55.0,29.98,NNW,335,7.0,17.0,53,0.00,,---,0.17,VWS V14.01,2013-05-10 20:55:00,
2013-05-10 16:00:00,73.2,55.1,29.98,NNW,339,7.0,17.0,53,0.00,,---,0.17,VWS V14.01,2013-05-10 21:00:00,
2013-05-10 16:05:00,73.6,54.9,29.98,NNW,337,11.0,15.0,52,0.00,,---,0.17,VWS V14.01,2013-05-10 21:05:00,
2013-05-10 16:10:00,73.6,54.4,29.98,NW,315,7.0,15.0,51,0.00,,---,0.17,VWS V14.01,2013-05-10 21:10:00,
2013-05-10 16:16:00,73.5,54.3,29.98,NE,40,9.0,15.0,51,0.00,,---,0.17,VWS V14.01,2013-05-10 21:16:00,
2013-05-10 16:21:00,73.5,54.8,29.98,NE,44,8.0,17.0,52,0.00,,---,0.17,VWS V14.01,2013-05-10 21:21:00,
2013-05-10 16:26:00,73.3,54.6,29.98,NNW,336,8.0,17.0,52,0.00,,---,0.17,VWS V14.01,2013-05-10 21:26:00,
2013-05-10 16:31:00,73.7,54.5,29.98,NW,315,8.0,9.0,51,0.00,,---,0.17,VWS V14.01,2013-05-10 21:31:00,
2013-05-10 16:36:00,74.1,55.4,29.98,SW,214,6.0,14.0,52,0.00,,---,0.17,VWS V14.01,2013-05-10 21:36:00,
2013-05-10 16:41:00,74.0,54.7,29.98,NNW,345,9.0,15.0,51,0.00,,---,0.17,VWS V14.01,2013-05-10 21:41:00,
2013-05-10 16:46:00,73.8,52.9,29.98,NW,320,8.0,15.0,48,0.00,,---,0.17,VWS V14.01,2013-05-10 21:46:00,
2013-05-10 16:51:00,73.5,54.3,29.98,NW,307,6.0,17.0,51,0.00,,---,0.17,VWS V14.01,2013-05-10 21:51:00,
2013-05-10 16:56:00,73.4,54.2,29.97,NNW,341,6.0,17.0,51,0.00,,---,0.17,VWS V14.01,2013-05-10 21:56:00,
2013-05-10 16:58:00,73.5,54.3,29.97,North,10,9.0,17.0,51,0.00,,---,0.17,VWS V14.01,2013-05-10 21:58:00,
2013-05-10 16:59:00,73.4,54.2,29.97,NW,307,7.0,17.0,51,0.00,,---,0.17,VWS V14.01,2013-05-10 21:59:00,
2013-05-10 17:04:00,73.1,54.5,29.97,North,355,9.0,17.0,52,0.00,,---,0.17,VWS V14.01,2013-05-10 22:04:00,
2013-05-10 17:09:00,72.9,54.3,29.97,North,4,10.0,17.0,52,0.00,,---,0.17,VWS V14.01,2013-05-10 22:09:00,
2013-05-10 17:14:00,72.7,54.1,29.97,NE,45,10.0,17.0,52,0.00,,---,0.17,VWS V14.01,2013-05-10 22:14:00,
2013-05-10 17:20:00,72.3,54.2,29.97,NNE,19,8.0,17.0,53,0.00,,---,0.17,VWS V14.01,2013-05-10 22:20:00,
2013-05-10 17:25:00,72.3,53.7,29.97,NNW,340,9.0,17.0,52,0.00,,---,0.17,VWS V14.01,2013-05-10 22:25:00,
2013-05-10 17:30:00,72.0,54.0,29.97,NNW,329,8.0,17.0,53,0.00,,---,0.17,VWS V14.01,2013-05-10 22:30:00,
2013-05-10 17:35:00,72.2,54.7,29.97,NW,325,12.0,14.0,54,0.00,,---,0.17,VWS V14.01,2013-05-10 22:35:00,
2013-05-10 17:40:00,71.9,53.9,29.97,NNE,19,13.0,18.0,53,0.00,,---,0.17,VWS V14.01,2013-05-10 22:40:00,
2013-05-10 17:45:00,71.6,53.6,29.97,NNE,15,14.0,18.0,53,0.00,,---,0.17,VWS V14.01,2013-05-10 22:45:00,
2013-05-10 17:50:00,71.6,53.6,29.97,NNW,345,13.0,18.0,53,0.00,,---,0.17,VWS V14.01,2013-05-10 22:50:00,
2013-05-10 17:55:00,71.4,52.9,29.97,NNE,13,13.0,18.0,52,0.00,,---,0.17,VWS V14.01,2013-05-10 22:55:00,
2013-05-10 18:00:00,71.4,53.4,29.97,NNW,335,9.0,18.0,53,0.00,,---,0.17,VWS V14.01,2013-05-10 23:00:00,
2013-05-10 18:05:00,71.4,53.4,29.98,North,358,11.0,14.0,53,0.00,,---,0.17,VWS V14.01,2013-05-10 23:05:00,
2013-05-10 18:11:00,71.2,53.2,29.97,North,5,8.0,17.0,53,0.00,,---,0.17,VWS V14.01,2013-05-10 23:11:00,
2013-05-10 18:16:00,71.0,53.0,29.98,NNE,23,12.0,17.0,53,0.00,,---,0.17,VWS V14.01,2013-05-10 23:16:00,
2013-05-10 18:21:00,70.7,52.8,29.98,NE,39,9.0,17.0,53,0.00,,---,0.17,VWS V14.01,2013-05-10 23:21:00,
2013-05-10 18:26:00,70.6,53.2,29.98,NE,39,15.0,17.0,54,0.00,,---,0.17,VWS V14.01,2013-05-10 23:26:00,
2013-05-10 18:31:00,70.4,53.5,29.98,NE,39,12.0,12.0,55,0.00,,---,0.17,VWS V14.01,2013-05-10 23:31:00,
2013-05-10 18:36:00,70.3,53.4,29.98,NNE,32,9.0,16.0,55,0.00,,---,0.17,VWS V14.01,2013-05-10 23:36:00,
2013-05-10 18:41:00,70.3,53.4,29.97,North,5,15.0,17.0,55,0.00,,---,0.17,VWS V14.01,2013-05-10 23:41:00,
2013-05-10 18:46:00,70.3,53.4,29.97,NNE,18,14.0,17.0,55,0.00,,---,0.17,VWS V14.01,2013-05-10 23:46:00,
2013-05-10 18:51:00,70.4,53.5,29.97,NNE,16,15.0,17.0,55,0.00,,---,0.17,VWS V14.01,2013-05-10 23:51:00,
2013-05-10 18:56:00,70.6,54.2,29.97,North,9,10.0,17.0,56,0.00,,---,0.17,VWS V14.01,2013-05-10 23:56:00,
2013-05-10 19:02:00,70.7,53.3,29.98,NNE,28,9.0,14.0,54,0.00,,---,0.17,VWS V14.01,2013-05-11 00:02:00,
2013-05-10 19:07:00,70.3,52.9,29.98,NNE,23,11.0,18.0,54,0.00,,---,0.17,VWS V14.01,2013-05-11 00:07:00,
2013-05-10 19:12:00,70.0,53.6,29.99,North,6,9.0,18.0,56,0.00,,---,0.17,VWS V14.01,2013-05-11 00:12:00,
2013-05-10 19:17:00,69.6,52.7,29.98,NE,38,11.0,18.0,55,0.00,,---,0.17,VWS V14.01,2013-05-11 00:17:00,
2013-05-10 19:22:00,69.4,53.5,29.98,NNE,30,9.0,18.0,57,0.00,,---,0.17,VWS V14.01,2013-05-11 00:22:00,
2013-05-10 19:27:00,69.2,52.8,29.99,NE,37,12.0,18.0,56,0.00,,---,0.17,VWS V14.01,2013-05-11 00:27:00,
2013-05-10 19:32:00,69.0,53.6,29.99,NE,46,7.0,8.0,58,0.00,,---,0.17,VWS V14.01,2013-05-11 00:32:00,
2013-05-10 19:37:00,68.8,53.4,29.99,NNE,29,7.0,13.0,58,0.00,,---,0.17,VWS V14.01,2013-05-11 00:37:00,
2013-05-10 19:42:00,68.6,53.7,29.99,North,9,9.0,13.0,59,0.00,,---,0.17,VWS V14.01,2013-05-11 00:42:00,
2013-05-10 19:48:00,68.4,53.5,29.99,NNE,30,9.0,13.0,59,0.00,,---,0.17,VWS V14.01,2013-05-11 00:48:00,
2013-05-10 19:53:00,68.3,53.4,29.99,NNE,28,5.0,13.0,59,0.00,,---,0.17,VWS V14.01,2013-05-11 00:53:00,
2013-05-10 19:58:00,68.2,53.8,30.00,NNE,32,8.0,13.0,60,0.00,,---,0.17,VWS V14.01,2013-05-11 00:58:00,
2013-05-10 20:03:00,68.0,53.2,30.00,NNE,16,7.0,8.0,59,0.00,,---,0.17,VWS V14.01,2013-05-11 01:03:00,
2013-05-10 20:08:00,67.7,53.8,30.01,NE,41,6.0,8.0,61,0.00,,---,0.17,VWS V14.01,2013-05-11 01:08:00,
2013-05-10 20:13:00,67.5,53.6,30.00,NNE,28,2.0,8.0,61,0.00,,---,0.17,VWS V14.01,2013-05-11 01:13:00,
2013-05-10 20:18:00,67.1,53.7,30.01,NNE,29,5.0,8.0,62,0.00,,---,0.17,VWS V14.01,2013-05-11 01:18:00,
2013-05-10 20:23:00,66.7,54.2,30.01,North,352,3.0,8.0,64,0.00,,---,0.17,VWS V14.01,2013-05-11 01:23:00,
2013-05-10 20:28:00,66.3,54.6,30.01,NNW,342,2.0,8.0,66,0.00,,---,0.17,VWS V14.01,2013-05-11 01:28:00,
2013-05-10 20:33:00,65.8,54.5,30.01,North,352,3.0,3.0,67,0.00,,---,0.17,VWS V14.01,2013-05-11 01:33:00,
2013-05-10 20:39:00,65.4,54.6,30.01,North,349,3.0,3.0,68,0.00,,---,0.17,VWS V14.01,2013-05-11 01:39:00,
2013-05-10 20:44:00,65.2,54.4,30.00,North,352,3.0,4.0,68,0.00,,---,0.17,VWS V14.01,2013-05-11 01:44:00,
2013-05-10 20:49:00,65.0,54.6,30.01,North,357,3.0,4.0,69,0.00,,---,0.17,VWS V14.01,2013-05-11 01:49:00,
2013-05-10 20:54:00,64.8,54.4,30.01,North,360,2.0,4.0,69,0.00,,---,0.17,VWS V14.01,2013-05-11 01:54:00,
2013-05-10 20:59:00,64.7,54.7,30.02,NNE,24,2.0,4.0,70,0.00,,---,0.17,VWS V14.01,2013-05-11 01:59:00,
2013-05-10 21:04:00,64.5,54.5,30.02,North,4,1.0,3.0,70,0.00,,---,0.17,VWS V14.01,2013-05-11 02:04:00,
2013-05-10 21:09:00,64.3,54.3,30.02,North,5,2.0,3.0,70,0.00,,---,0.17,VWS V14.01,2013-05-11 02:09:00,
2013-05-10 21:14:00,64.2,54.6,30.03,North,6,1.0,3.0,71,0.00,,---,0.17,VWS V14.01,2013-05-11 02:14:00,
2013-05-10 21:20:00,64.0,54.4,30.03,North,6,1.0,3.0,71,0.00,,---,0.17,VWS V14.01,2013-05-11 02:20:00,
2013-05-10 21:25:00,63.7,54.5,30.03,North,6,1.0,3.0,72,0.00,,---,0.17,VWS V14.01,2013-05-11 02:25:00,
2013-05-10 21:30:00,63.3,54.5,30.03,North,6,0.0,3.0,73,0.00,,---,0.17,VWS V14.01,2013-05-11 02:30:00,
2013-05-10 21:35:00,62.9,54.5,30.03,North,6,0.0,0.0,74,0.00,,---,0.17,VWS V14.01,2013-05-11 02:35:00,
2013-05-10 21:40:00,62.3,53.9,30.04,North,6,0.0,0.0,74,0.00,,---,0.17,VWS V14.01,2013-05-11 02:40:00,
2013-05-10 21:45:00,61.8,54.2,30.04,North,6,0.0,0.0,76,0.00,,---,0.17,VWS V14.01,2013-05-11 02:45:00,
2013-05-10 21:50:00,61.5,54.2,30.04,North,6,1.0,1.0,77,0.00,,---,0.17,VWS V14.01,2013-05-11 02:50:00,
2013-05-10 21:55:00,61.2,54.3,30.05,North,6,1.0,1.0,78,0.00,,---,0.17,VWS V14.01,2013-05-11 02:55:00,
2013-05-10 22:00:00,61.1,54.5,30.05,ESE,114,1.0,2.0,79,0.00,,---,0.17,VWS V14.01,2013-05-11 03:00:00,
2013-05-10 22:06:00,60.7,54.2,30.05,ESE,114,0.0,1.0,79,0.00,,---,0.17,VWS V14.01,2013-05-11 03:06:00,
2013-05-10 22:11:00,60.6,54.4,30.05,ESE,114,0.0,1.0,80,0.00,,---,0.17,VWS V14.01,2013-05-11 03:11:00,
2013-05-10 22:16:00,60.6,54.8,30.05,ESE,115,0.0,1.0,81,0.00,,---,0.17,VWS V14.01,2013-05-11 03:16:00,
2013-05-10 22:21:00,60.8,54.9,30.06,ESE,114,1.0,1.0,81,0.00,,---,0.17,VWS V14.01,2013-05-11 03:21:00,
2013-05-10 22:26:00,61.1,54.9,30.06,ESE,114,1.0,2.0,80,0.00,,---,0.17,VWS V14.01,2013-05-11 03:26:00,
2013-05-10 22:31:00,61.3,55.1,30.06,NNE,31,3.0,3.0,80,0.00,,---,0.17,VWS V14.01,2013-05-11 03:31:00,
2013-05-10 22:36:00,61.4,54.8,30.06,NNE,16,1.0,3.0,79,0.00,,---,0.17,VWS V14.01,2013-05-11 03:36:00,
2013-05-10 22:41:00,60.8,54.9,30.06,North,356,1.0,3.0,81,0.00,,---,0.17,VWS V14.01,2013-05-11 03:41:00,
2013-05-10 22:46:00,60.1,54.9,30.07,North,355,1.0,3.0,83,0.00,,---,0.17,VWS V14.01,2013-05-11 03:46:00,
2013-05-10 22:51:00,59.5,54.7,30.07,North,355,1.0,3.0,84,0.00,,---,0.17,VWS V14.01,2013-05-11 03:51:00,
2013-05-10 22:57:00,59.1,54.3,30.07,North,355,0.0,3.0,84,0.00,,---,0.17,VWS V14.01,2013-05-11 03:57:00,
2013-05-10 23:01:00,59.1,54.3,30.07,North,355,1.0,1.0,84,0.00,,---,0.17,VWS V14.01,2013-05-11 04:01:00,
2013-05-10 23:02:00,59.3,54.2,30.07,North,355,0.0,1.0,83,0.00,,---,0.17,VWS V14.01,2013-05-11 04:02:00,
2013-05-10 23:05:00,59.4,54.2,30.07,North,355,0.0,1.0,83,0.00,,---,0.17,VWS V14.01,2013-05-11 04:05:00,
2013-05-10 23:10:00,59.5,54.3,30.07,North,356,0.0,1.0,83,0.00,,---,0.17,VWS V14.01,2013-05-11 04:10:00,
2013-05-10 23:15:00,59.4,54.6,30.07,North,355,0.0,1.0,84,0.00,,---,0.17,VWS V14.01,2013-05-11 04:15:00,
2013-05-10 23:20:00,59.2,54.4,30.07,North,355,0.0,1.0,84,0.00,,---,0.17,VWS V14.01,2013-05-11 04:20:00,
2013-05-10 23:25:00,59.0,54.5,30.07,North,355,0.0,1.0,85,0.00,,---,0.17,VWS V14.01,2013-05-11 04:25:00,
2013-05-10 23:31:00,58.9,54.4,30.08,North,355,0.0,0.0,85,0.00,,---,0.17,VWS V14.01,2013-05-11 04:31:00,
2013-05-10 23:36:00,58.7,54.2,30.08,North,355,1.0,1.0,85,0.00,,---,0.17,VWS V14.01,2013-05-11 04:36:00,
2013-05-10 23:41:00,58.5,54.7,30.08,North,356,2.0,2.0,87,0.00,,---,0.17,VWS V14.01,2013-05-11 04:41:00,
2013-05-10 23:46:00,58.0,54.5,30.08,NW,312,1.0,2.0,88,0.00,,---,0.17,VWS V14.01,2013-05-11 04:46:00,
2013-05-10 23:51:00,57.6,54.1,30.08,NW,312,1.0,2.0,88,0.00,,---,0.17,VWS V14.01,2013-05-11 04:51:00,
2013-05-10 23:56:00,57.4,53.9,30.08,NW,312,0.0,2.0,88,0.00,,---,0.17,VWS V14.01,2013-05-11 04:56:00,